sensor_id;sensor_type;location;lat;lon;timestamp;P1;durP1;ratioP1;P2;durP2;ratioP2
11054;SDS011;5580;50.106;8.702;2022-10-31T00:01:58;25.33;;;14.90;;
11054;SDS011;5580;50.106;8.702;2022-10-31T00:04:23;21.30;;;13.83;;
11054;SDS011;5580;50.106;8.702;2022-10-31T00:06:49;23.67;;;14.57;;
11054;SDS011;5580;50.106;8.702;2022-10-31T00:09:14;24.83;;;13.33;;
11054;SDS011;5580;50.106;8.702;2022-10-31T00:11:40;24.13;;;13.67;;
11054;SDS011;5580;50.106;8.702;2022-10-31T00:14:05;22.47;;;13.00;;
11054;SDS011;5580;50.106;8.702;2022-10-31T00:16:31;21.60;;;13.20;;
11054;SDS011;5580;50.106;8.702;2022-10-31T00:18:58;25.47;;;13.63;;
11054;SDS011;5580;50.106;8.702;2022-10-31T00:21:25;24.27;;;15.13;;
11054;SDS011;5580;50.106;8.702;2022-10-31T00:23:52;21.60;;;13.93;;
11054;SDS011;5580;50.106;8.702;2022-10-31T00:26:18;21.83;;;13.43;;
11054;SDS011;5580;50.106;8.702;2022-10-31T00:28:43;25.43;;;15.23;;
11054;SDS011;5580;50.106;8.702;2022-10-31T00:31:10;25.50;;;13.97;;
11054;SDS011;5580;50.106;8.702;2022-10-31T00:33:37;26.97;;;14.27;;
11054;SDS011;5580;50.106;8.702;2022-10-31T00:36:04;22.93;;;13.53;;
11054;SDS011;5580;50.106;8.702;2022-10-31T00:38:31;22.13;;;13.33;;
11054;SDS011;5580;50.106;8.702;2022-10-31T00:40:57;22.33;;;13.67;;
11054;SDS011;5580;50.106;8.702;2022-10-31T00:43:22;26.20;;;14.43;;
11054;SDS011;5580;50.106;8.702;2022-10-31T00:45:48;25.93;;;14.70;;
11054;SDS011;5580;50.106;8.702;2022-10-31T00:48:14;23.43;;;13.83;;
11054;SDS011;5580;50.106;8.702;2022-10-31T00:50:40;22.53;;;14.27;;
11054;SDS011;5580;50.106;8.702;2022-10-31T00:53:06;23.07;;;14.87;;
11054;SDS011;5580;50.106;8.702;2022-10-31T00:55:32;25.03;;;14.67;;
11054;SDS011;5580;50.106;8.702;2022-10-31T00:57:57;26.53;;;13.87;;
11054;SDS011;5580;50.106;8.702;2022-10-31T01:00:23;25.50;;;13.93;;
11054;SDS011;5580;50.106;8.702;2022-10-31T01:02:49;22.87;;;13.33;;
11054;SDS011;5580;50.106;8.702;2022-10-31T01:05:14;23.17;;;13.80;;
11054;SDS011;5580;50.106;8.702;2022-10-31T01:07:40;25.07;;;13.23;;
11054;SDS011;5580;50.106;8.702;2022-10-31T01:10:06;24.43;;;13.87;;
11054;SDS011;5580;50.106;8.702;2022-10-31T01:12:37;25.57;;;13.53;;
11054;SDS011;5580;50.106;8.702;2022-10-31T01:15:07;23.70;;;12.97;;
11054;SDS011;5580;50.106;8.702;2022-10-31T01:17:33;24.43;;;13.00;;
11054;SDS011;5580;50.106;8.702;2022-10-31T01:19:59;22.10;;;12.10;;
11054;SDS011;5580;50.106;8.702;2022-10-31T01:22:25;23.53;;;13.30;;
11054;SDS011;5580;50.106;8.702;2022-10-31T01:24:51;23.13;;;12.80;;
11054;SDS011;5580;50.106;8.702;2022-10-31T01:27:16;20.87;;;12.90;;
11054;SDS011;5580;50.106;8.702;2022-10-31T01:29:42;20.20;;;12.73;;
11054;SDS011;5580;50.106;8.702;2022-10-31T01:32:07;24.47;;;12.50;;
11054;SDS011;5580;50.106;8.702;2022-10-31T01:34:33;24.03;;;13.53;;
11054;SDS011;5580;50.106;8.702;2022-10-31T01:36:59;24.97;;;13.40;;
11054;SDS011;5580;50.106;8.702;2022-10-31T01:39:25;22.00;;;13.27;;
11054;SDS011;5580;50.106;8.702;2022-10-31T01:41:51;24.03;;;13.33;;
11054;SDS011;5580;50.106;8.702;2022-10-31T01:46:47;20.23;;;12.90;;
11054;SDS011;5580;50.106;8.702;2022-10-31T01:49:18;23.87;;;13.43;;
11054;SDS011;5580;50.106;8.702;2022-10-31T01:51:54;22.97;;;12.37;;
11054;SDS011;5580;50.106;8.702;2022-10-31T01:54:24;19.03;;;12.67;;
11054;SDS011;5580;50.106;8.702;2022-10-31T01:56:54;21.90;;;11.93;;
11054;SDS011;5580;50.106;8.702;2022-10-31T01:59:22;18.47;;;11.93;;
11054;SDS011;5580;50.106;8.702;2022-10-31T02:01:49;22.70;;;12.43;;
11054;SDS011;5580;50.106;8.702;2022-10-31T02:04:17;22.43;;;12.50;;
11054;SDS011;5580;50.106;8.702;2022-10-31T02:09:25;21.67;;;12.30;;
11054;SDS011;5580;50.106;8.702;2022-10-31T02:11:52;20.77;;;12.10;;
11054;SDS011;5580;50.106;8.702;2022-10-31T02:14:23;18.80;;;11.83;;
11054;SDS011;5580;50.106;8.702;2022-10-31T02:16:50;21.63;;;12.90;;
11054;SDS011;5580;50.106;8.702;2022-10-31T02:19:18;21.57;;;11.83;;
11054;SDS011;5580;50.106;8.702;2022-10-31T02:22:01;21.93;;;11.97;;
11054;SDS011;5580;50.106;8.702;2022-10-31T02:24:56;20.10;;;12.20;;
11054;SDS011;5580;50.106;8.702;2022-10-31T02:27:36;18.37;;;11.80;;
11054;SDS011;5580;50.106;8.702;2022-10-31T02:33:34;21.97;;;12.43;;
11054;SDS011;5580;50.106;8.702;2022-10-31T02:36:12;22.70;;;13.10;;
11054;SDS011;5580;50.106;8.702;2022-10-31T02:38:51;21.10;;;11.60;;
11054;SDS011;5580;50.106;8.702;2022-10-31T02:47:10;20.73;;;12.07;;
11054;SDS011;5580;50.106;8.702;2022-10-31T02:52:19;19.73;;;11.93;;
11054;SDS011;5580;50.106;8.702;2022-10-31T02:54:51;21.57;;;12.60;;
11054;SDS011;5580;50.106;8.702;2022-10-31T02:57:19;21.23;;;12.40;;
11054;SDS011;5580;50.106;8.702;2022-10-31T02:59:57;19.27;;;12.47;;
11054;SDS011;5580;50.106;8.702;2022-10-31T03:07:47;19.10;;;11.57;;
11054;SDS011;5580;50.106;8.702;2022-10-31T03:13:07;18.87;;;11.27;;
11054;SDS011;5580;50.106;8.702;2022-10-31T03:15:44;17.40;;;12.03;;
11054;SDS011;5580;50.106;8.702;2022-10-31T03:20:58;19.90;;;11.97;;
11054;SDS011;5580;50.106;8.702;2022-10-31T03:23:29;20.20;;;12.23;;
11054;SDS011;5580;50.106;8.702;2022-10-31T03:25:56;20.30;;;11.70;;
11054;SDS011;5580;50.106;8.702;2022-10-31T03:28:28;19.60;;;11.20;;
11054;SDS011;5580;50.106;8.702;2022-10-31T03:30:58;20.87;;;11.70;;
11054;SDS011;5580;50.106;8.702;2022-10-31T03:33:26;25.23;;;11.90;;
11054;SDS011;5580;50.106;8.702;2022-10-31T03:35:55;21.77;;;11.87;;
11054;SDS011;5580;50.106;8.702;2022-10-31T03:38:25;19.63;;;11.70;;
11054;SDS011;5580;50.106;8.702;2022-10-31T03:40:53;17.97;;;10.83;;
11054;SDS011;5580;50.106;8.702;2022-10-31T03:43:22;19.80;;;11.20;;
11054;SDS011;5580;50.106;8.702;2022-10-31T03:45:53;20.00;;;11.37;;
11054;SDS011;5580;50.106;8.702;2022-10-31T03:48:19;23.23;;;11.30;;
11054;SDS011;5580;50.106;8.702;2022-10-31T03:50:52;22.90;;;11.83;;
11054;SDS011;5580;50.106;8.702;2022-10-31T03:53:45;21.23;;;10.67;;
11054;SDS011;5580;50.106;8.702;2022-10-31T03:56:31;21.93;;;11.37;;
11054;SDS011;5580;50.106;8.702;2022-10-31T03:59:02;20.23;;;11.40;;
11054;SDS011;5580;50.106;8.702;2022-10-31T04:01:42;19.10;;;11.00;;
11054;SDS011;5580;50.106;8.702;2022-10-31T04:04:13;18.60;;;10.73;;
11054;SDS011;5580;50.106;8.702;2022-10-31T04:06:39;19.63;;;11.00;;
11054;SDS011;5580;50.106;8.702;2022-10-31T04:09:08;18.97;;;10.30;;
11054;SDS011;5580;50.106;8.702;2022-10-31T04:11:36;22.47;;;11.27;;
11054;SDS011;5580;50.106;8.702;2022-10-31T04:14:10;18.40;;;11.10;;
11054;SDS011;5580;50.106;8.702;2022-10-31T04:16:37;18.50;;;11.00;;
11054;SDS011;5580;50.106;8.702;2022-10-31T04:19:06;21.43;;;11.47;;
11054;SDS011;5580;50.106;8.702;2022-10-31T04:21:32;21.60;;;11.43;;
11054;SDS011;5580;50.106;8.702;2022-10-31T04:23:57;21.50;;;11.30;;
11054;SDS011;5580;50.106;8.702;2022-10-31T04:26:23;19.37;;;10.23;;
11054;SDS011;5580;50.106;8.702;2022-10-31T04:28:49;23.97;;;11.80;;
11054;SDS011;5580;50.106;8.702;2022-10-31T04:31:14;23.23;;;10.70;;
11054;SDS011;5580;50.106;8.702;2022-10-31T04:33:40;23.07;;;10.77;;
11054;SDS011;5580;50.106;8.702;2022-10-31T04:36:06;21.37;;;11.37;;
11054;SDS011;5580;50.106;8.702;2022-10-31T04:38:32;19.60;;;10.63;;
11054;SDS011;5580;50.106;8.702;2022-10-31T04:40:58;17.40;;;10.57;;
11054;SDS011;5580;50.106;8.702;2022-10-31T04:43:23;19.40;;;11.40;;
11054;SDS011;5580;50.106;8.702;2022-10-31T04:45:49;19.80;;;11.10;;
11054;SDS011;5580;50.106;8.702;2022-10-31T04:48:15;18.40;;;10.93;;
11054;SDS011;5580;50.106;8.702;2022-10-31T04:50:40;19.63;;;11.37;;
11054;SDS011;5580;50.106;8.702;2022-10-31T04:53:06;21.67;;;11.07;;
11054;SDS011;5580;50.106;8.702;2022-10-31T04:55:31;20.33;;;11.00;;
11054;SDS011;5580;50.106;8.702;2022-10-31T04:57:57;18.30;;;10.97;;
11054;SDS011;5580;50.106;8.702;2022-10-31T05:00:23;18.70;;;11.13;;
11054;SDS011;5580;50.106;8.702;2022-10-31T05:02:53;19.17;;;12.10;;
11054;SDS011;5580;50.106;8.702;2022-10-31T05:05:21;20.90;;;12.43;;
11054;SDS011;5580;50.106;8.702;2022-10-31T05:07:48;19.07;;;11.77;;
11054;SDS011;5580;50.106;8.702;2022-10-31T05:10:15;20.97;;;13.53;;
11054;SDS011;5580;50.106;8.702;2022-10-31T05:12:53;22.73;;;14.83;;
11054;SDS011;5580;50.106;8.702;2022-10-31T05:15:21;25.73;;;15.13;;
11054;SDS011;5580;50.106;8.702;2022-10-31T05:17:48;19.63;;;11.93;;
11054;SDS011;5580;50.106;8.702;2022-10-31T05:20:14;20.53;;;12.23;;
11054;SDS011;5580;50.106;8.702;2022-10-31T05:22:54;22.47;;;12.47;;
11054;SDS011;5580;50.106;8.702;2022-10-31T05:25:21;22.20;;;11.83;;
11054;SDS011;5580;50.106;8.702;2022-10-31T05:27:49;19.60;;;11.17;;
11054;SDS011;5580;50.106;8.702;2022-10-31T05:30:17;21.40;;;10.80;;
11054;SDS011;5580;50.106;8.702;2022-10-31T05:32:46;21.93;;;10.97;;
11054;SDS011;5580;50.106;8.702;2022-10-31T05:35:15;20.73;;;11.43;;
11054;SDS011;5580;50.106;8.702;2022-10-31T05:37:42;19.83;;;11.47;;
11054;SDS011;5580;50.106;8.702;2022-10-31T05:40:08;17.50;;;10.73;;
11054;SDS011;5580;50.106;8.702;2022-10-31T05:42:35;21.90;;;10.97;;
11054;SDS011;5580;50.106;8.702;2022-10-31T05:45:03;22.57;;;11.40;;
11054;SDS011;5580;50.106;8.702;2022-10-31T05:47:29;21.90;;;11.23;;
11054;SDS011;5580;50.106;8.702;2022-10-31T05:49:55;20.97;;;11.50;;
11054;SDS011;5580;50.106;8.702;2022-10-31T05:52:20;21.70;;;10.47;;
11054;SDS011;5580;50.106;8.702;2022-10-31T05:54:46;21.63;;;11.20;;
11054;SDS011;5580;50.106;8.702;2022-10-31T05:57:12;20.93;;;11.40;;
11054;SDS011;5580;50.106;8.702;2022-10-31T05:59:37;22.30;;;10.43;;
11054;SDS011;5580;50.106;8.702;2022-10-31T06:02:03;22.47;;;10.73;;
11054;SDS011;5580;50.106;8.702;2022-10-31T06:04:28;20.53;;;11.17;;
11054;SDS011;5580;50.106;8.702;2022-10-31T06:06:54;18.17;;;10.47;;
11054;SDS011;5580;50.106;8.702;2022-10-31T06:09:21;19.63;;;10.43;;
11054;SDS011;5580;50.106;8.702;2022-10-31T06:11:46;20.73;;;10.60;;
11054;SDS011;5580;50.106;8.702;2022-10-31T06:14:12;19.43;;;10.77;;
11054;SDS011;5580;50.106;8.702;2022-10-31T06:16:37;20.23;;;10.53;;
11054;SDS011;5580;50.106;8.702;2022-10-31T06:19:03;21.57;;;10.67;;
11054;SDS011;5580;50.106;8.702;2022-10-31T06:21:29;21.43;;;10.97;;
11054;SDS011;5580;50.106;8.702;2022-10-31T06:23:54;20.73;;;10.50;;
11054;SDS011;5580;50.106;8.702;2022-10-31T06:26:20;21.20;;;10.80;;
11054;SDS011;5580;50.106;8.702;2022-10-31T06:28:45;25.87;;;11.47;;
11054;SDS011;5580;50.106;8.702;2022-10-31T06:31:11;20.73;;;10.43;;
11054;SDS011;5580;50.106;8.702;2022-10-31T06:33:36;18.27;;;10.17;;
11054;SDS011;5580;50.106;8.702;2022-10-31T06:36:02;21.20;;;10.43;;
11054;SDS011;5580;50.106;8.702;2022-10-31T06:38:28;21.60;;;10.77;;
11054;SDS011;5580;50.106;8.702;2022-10-31T06:40:53;24.70;;;10.87;;
11054;SDS011;5580;50.106;8.702;2022-10-31T06:43:20;25.17;;;10.80;;
11054;SDS011;5580;50.106;8.702;2022-10-31T06:45:46;24.70;;;11.73;;
11054;SDS011;5580;50.106;8.702;2022-10-31T06:48:12;24.90;;;10.77;;
11054;SDS011;5580;50.106;8.702;2022-10-31T06:50:38;22.97;;;11.27;;
11054;SDS011;5580;50.106;8.702;2022-10-31T06:53:03;21.50;;;10.70;;
11054;SDS011;5580;50.106;8.702;2022-10-31T06:55:29;23.10;;;11.70;;
11054;SDS011;5580;50.106;8.702;2022-10-31T06:57:55;20.17;;;10.83;;
11054;SDS011;5580;50.106;8.702;2022-10-31T07:00:23;24.50;;;11.53;;
11054;SDS011;5580;50.106;8.702;2022-10-31T07:02:53;25.50;;;12.80;;
11054;SDS011;5580;50.106;8.702;2022-10-31T07:05:20;28.00;;;11.43;;
11054;SDS011;5580;50.106;8.702;2022-10-31T07:07:46;27.10;;;10.87;;
11054;SDS011;5580;50.106;8.702;2022-10-31T07:10:11;21.50;;;11.10;;
11054;SDS011;5580;50.106;8.702;2022-10-31T07:12:37;30.73;;;11.73;;
11054;SDS011;5580;50.106;8.702;2022-10-31T07:15:03;26.67;;;12.17;;
11054;SDS011;5580;50.106;8.702;2022-10-31T07:17:29;21.33;;;11.17;;
11054;SDS011;5580;50.106;8.702;2022-10-31T07:19:55;24.63;;;11.40;;
11054;SDS011;5580;50.106;8.702;2022-10-31T07:22:21;18.17;;;10.93;;
11054;SDS011;5580;50.106;8.702;2022-10-31T07:24:46;26.27;;;12.03;;
11054;SDS011;5580;50.106;8.702;2022-10-31T07:27:12;24.63;;;12.27;;
11054;SDS011;5580;50.106;8.702;2022-10-31T07:29:37;24.60;;;12.33;;
11054;SDS011;5580;50.106;8.702;2022-10-31T07:32:03;25.30;;;11.87;;
11054;SDS011;5580;50.106;8.702;2022-10-31T07:34:29;29.00;;;12.00;;
11054;SDS011;5580;50.106;8.702;2022-10-31T07:36:54;23.50;;;11.77;;
11054;SDS011;5580;50.106;8.702;2022-10-31T07:39:20;29.17;;;12.40;;
11054;SDS011;5580;50.106;8.702;2022-10-31T07:41:45;29.43;;;11.63;;
11054;SDS011;5580;50.106;8.702;2022-10-31T07:44:11;29.93;;;12.13;;
11054;SDS011;5580;50.106;8.702;2022-10-31T07:46:36;19.73;;;11.13;;
11054;SDS011;5580;50.106;8.702;2022-10-31T07:49:02;21.43;;;11.83;;
11054;SDS011;5580;50.106;8.702;2022-10-31T07:51:28;19.03;;;10.73;;
11054;SDS011;5580;50.106;8.702;2022-10-31T07:53:54;21.60;;;11.03;;
11054;SDS011;5580;50.106;8.702;2022-10-31T07:56:19;16.80;;;11.17;;
11054;SDS011;5580;50.106;8.702;2022-10-31T07:58:45;25.50;;;12.30;;
11054;SDS011;5580;50.106;8.702;2022-10-31T08:01:10;23.40;;;11.40;;
11054;SDS011;5580;50.106;8.702;2022-10-31T08:03:36;22.97;;;12.10;;
11054;SDS011;5580;50.106;8.702;2022-10-31T08:06:01;24.27;;;12.87;;
11054;SDS011;5580;50.106;8.702;2022-10-31T08:08:27;27.27;;;13.40;;
11054;SDS011;5580;50.106;8.702;2022-10-31T08:10:53;25.37;;;13.03;;
11054;SDS011;5580;50.106;8.702;2022-10-31T08:13:19;29.67;;;14.27;;
11054;SDS011;5580;50.106;8.702;2022-10-31T08:15:45;23.67;;;13.43;;
11054;SDS011;5580;50.106;8.702;2022-10-31T08:18:15;30.40;;;14.07;;
11054;SDS011;5580;50.106;8.702;2022-10-31T08:20:41;26.80;;;13.73;;
11054;SDS011;5580;50.106;8.702;2022-10-31T08:23:08;24.63;;;14.33;;
11054;SDS011;5580;50.106;8.702;2022-10-31T08:25:35;33.07;;;14.83;;
11054;SDS011;5580;50.106;8.702;2022-10-31T08:28:01;26.73;;;15.37;;
11054;SDS011;5580;50.106;8.702;2022-10-31T08:30:31;28.73;;;15.60;;
11054;SDS011;5580;50.106;8.702;2022-10-31T08:32:59;24.57;;;14.83;;
11054;SDS011;5580;50.106;8.702;2022-10-31T08:35:25;28.17;;;14.83;;
11054;SDS011;5580;50.106;8.702;2022-10-31T08:37:54;28.83;;;15.47;;
11054;SDS011;5580;50.106;8.702;2022-10-31T08:40:20;28.50;;;15.63;;
11054;SDS011;5580;50.106;8.702;2022-10-31T08:42:46;31.60;;;15.53;;
11054;SDS011;5580;50.106;8.702;2022-10-31T08:45:12;29.73;;;15.50;;
11054;SDS011;5580;50.106;8.702;2022-10-31T08:47:37;29.73;;;15.63;;
11054;SDS011;5580;50.106;8.702;2022-10-31T08:50:03;29.03;;;15.40;;
11054;SDS011;5580;50.106;8.702;2022-10-31T08:52:29;28.53;;;15.43;;
11054;SDS011;5580;50.106;8.702;2022-10-31T08:54:55;29.33;;;16.50;;
11054;SDS011;5580;50.106;8.702;2022-10-31T08:57:20;28.63;;;16.57;;
11054;SDS011;5580;50.106;8.702;2022-10-31T08:59:46;32.70;;;17.37;;
11054;SDS011;5580;50.106;8.702;2022-10-31T09:02:11;28.37;;;16.03;;
11054;SDS011;5580;50.106;8.702;2022-10-31T09:04:37;27.77;;;15.87;;
11054;SDS011;5580;50.106;8.702;2022-10-31T09:07:02;27.97;;;17.30;;
11054;SDS011;5580;50.106;8.702;2022-10-31T09:09:28;29.13;;;16.53;;
11054;SDS011;5580;50.106;8.702;2022-10-31T09:11:54;26.53;;;17.30;;
11054;SDS011;5580;50.106;8.702;2022-10-31T09:14:19;23.77;;;15.80;;
11054;SDS011;5580;50.106;8.702;2022-10-31T09:16:45;24.97;;;16.07;;
11054;SDS011;5580;50.106;8.702;2022-10-31T09:19:10;25.90;;;16.33;;
11054;SDS011;5580;50.106;8.702;2022-10-31T09:21:36;24.27;;;16.27;;
11054;SDS011;5580;50.106;8.702;2022-10-31T09:24:01;27.40;;;16.43;;
11054;SDS011;5580;50.106;8.702;2022-10-31T09:26:27;30.40;;;16.30;;
11054;SDS011;5580;50.106;8.702;2022-10-31T09:28:53;30.53;;;16.87;;
11054;SDS011;5580;50.106;8.702;2022-10-31T09:31:18;26.07;;;17.37;;
11054;SDS011;5580;50.106;8.702;2022-10-31T09:33:44;27.20;;;17.33;;
11054;SDS011;5580;50.106;8.702;2022-10-31T09:36:09;28.23;;;17.83;;
11054;SDS011;5580;50.106;8.702;2022-10-31T09:38:35;36.57;;;18.10;;
11054;SDS011;5580;50.106;8.702;2022-10-31T09:41:12;31.90;;;18.40;;
11054;SDS011;5580;50.106;8.702;2022-10-31T09:46:29;31.57;;;17.57;;
11054;SDS011;5580;50.106;8.702;2022-10-31T09:51:53;31.40;;;16.87;;
11054;SDS011;5580;50.106;8.702;2022-10-31T09:54:42;33.27;;;17.33;;
11054;SDS011;5580;50.106;8.702;2022-10-31T09:57:30;31.33;;;17.43;;
11054;SDS011;5580;50.106;8.702;2022-10-31T09:59:58;31.87;;;18.10;;
11054;SDS011;5580;50.106;8.702;2022-10-31T10:04:57;27.13;;;16.33;;
11054;SDS011;5580;50.106;8.702;2022-10-31T10:09:57;30.00;;;16.60;;
11054;SDS011;5580;50.106;8.702;2022-10-31T10:13:05;28.27;;;17.17;;
11054;SDS011;5580;50.106;8.702;2022-10-31T10:15:50;29.47;;;16.50;;
11054;SDS011;5580;50.106;8.702;2022-10-31T10:21:23;28.40;;;17.03;;
11054;SDS011;5580;50.106;8.702;2022-10-31T10:26:22;27.33;;;17.07;;
11054;SDS011;5580;50.106;8.702;2022-10-31T10:28:57;29.37;;;17.07;;
11054;SDS011;5580;50.106;8.702;2022-10-31T10:31:28;28.27;;;16.40;;
11054;SDS011;5580;50.106;8.702;2022-10-31T10:34:01;31.30;;;17.20;;
11054;SDS011;5580;50.106;8.702;2022-10-31T10:36:32;26.50;;;17.80;;
11054;SDS011;5580;50.106;8.702;2022-10-31T10:39:20;30.40;;;17.53;;
11054;SDS011;5580;50.106;8.702;2022-10-31T10:41:50;29.70;;;17.23;;
11054;SDS011;5580;50.106;8.702;2022-10-31T10:44:38;27.57;;;17.80;;
11054;SDS011;5580;50.106;8.702;2022-10-31T10:47:27;27.57;;;16.43;;
11054;SDS011;5580;50.106;8.702;2022-10-31T10:50:04;28.63;;;18.07;;
11054;SDS011;5580;50.106;8.702;2022-10-31T10:55:48;29.53;;;17.90;;
11054;SDS011;5580;50.106;8.702;2022-10-31T10:58:18;31.17;;;17.37;;
11054;SDS011;5580;50.106;8.702;2022-10-31T11:00:45;31.43;;;18.40;;
11054;SDS011;5580;50.106;8.702;2022-10-31T11:03:11;28.50;;;16.53;;
11054;SDS011;5580;50.106;8.702;2022-10-31T11:06:00;27.07;;;17.30;;
11054;SDS011;5580;50.106;8.702;2022-10-31T11:08:27;31.20;;;17.20;;
11054;SDS011;5580;50.106;8.702;2022-10-31T11:11:04;25.30;;;17.20;;
11054;SDS011;5580;50.106;8.702;2022-10-31T11:13:34;30.43;;;17.17;;
11054;SDS011;5580;50.106;8.702;2022-10-31T11:16:08;27.87;;;17.27;;
11054;SDS011;5580;50.106;8.702;2022-10-31T11:21:51;25.53;;;16.53;;
11054;SDS011;5580;50.106;8.702;2022-10-31T11:24:18;25.47;;;16.07;;
11054;SDS011;5580;50.106;8.702;2022-10-31T11:26:46;25.03;;;15.67;;
11054;SDS011;5580;50.106;8.702;2022-10-31T11:31:45;26.07;;;15.70;;
11054;SDS011;5580;50.106;8.702;2022-10-31T11:34:30;25.97;;;16.10;;
11054;SDS011;5580;50.106;8.702;2022-10-31T11:37:03;28.20;;;16.37;;
11054;SDS011;5580;50.106;8.702;2022-10-31T11:39:46;25.83;;;15.67;;
11054;SDS011;5580;50.106;8.702;2022-10-31T11:42:40;29.87;;;15.77;;
11054;SDS011;5580;50.106;8.702;2022-10-31T11:45:15;22.33;;;15.47;;
11054;SDS011;5580;50.106;8.702;2022-10-31T11:47:52;29.80;;;16.20;;
11054;SDS011;5580;50.106;8.702;2022-10-31T11:50:22;25.37;;;15.80;;
11054;SDS011;5580;50.106;8.702;2022-10-31T11:52:57;24.60;;;15.50;;
11054;SDS011;5580;50.106;8.702;2022-10-31T11:57:59;25.37;;;16.17;;
11054;SDS011;5580;50.106;8.702;2022-10-31T12:00:37;26.47;;;16.13;;
11054;SDS011;5580;50.106;8.702;2022-10-31T12:08:44;31.13;;;16.67;;
11054;SDS011;5580;50.106;8.702;2022-10-31T12:14:01;27.70;;;16.73;;
11054;SDS011;5580;50.106;8.702;2022-10-31T12:16:54;26.23;;;16.43;;
11054;SDS011;5580;50.106;8.702;2022-10-31T12:25:43;28.60;;;16.10;;
11054;SDS011;5580;50.106;8.702;2022-10-31T12:35:26;35.17;;;15.30;;
11054;SDS011;5580;50.106;8.702;2022-10-31T12:44:02;34.13;;;15.93;;
11054;SDS011;5580;50.106;8.702;2022-10-31T12:57:26;25.77;;;14.53;;
11054;SDS011;5580;50.106;8.702;2022-10-31T12:59:57;20.93;;;13.37;;
11054;SDS011;5580;50.106;8.702;2022-10-31T13:05:02;24.50;;;13.53;;
11054;SDS011;5580;50.106;8.702;2022-10-31T13:07:46;23.50;;;13.93;;
11054;SDS011;5580;50.106;8.702;2022-10-31T13:10:21;22.47;;;13.40;;
11054;SDS011;5580;50.106;8.702;2022-10-31T13:12:52;24.10;;;13.07;;
11054;SDS011;5580;50.106;8.702;2022-10-31T13:15:24;23.47;;;12.73;;
11054;SDS011;5580;50.106;8.702;2022-10-31T13:17:56;22.80;;;12.67;;
11054;SDS011;5580;50.106;8.702;2022-10-31T13:20:27;24.70;;;12.70;;
11054;SDS011;5580;50.106;8.702;2022-10-31T13:26:18;24.83;;;12.40;;
11054;SDS011;5580;50.106;8.702;2022-10-31T13:28:51;23.50;;;12.93;;
11054;SDS011;5580;50.106;8.702;2022-10-31T13:31:21;24.27;;;12.50;;
11054;SDS011;5580;50.106;8.702;2022-10-31T13:33:48;25.63;;;12.13;;
11054;SDS011;5580;50.106;8.702;2022-10-31T13:41:41;23.40;;;11.60;;
11054;SDS011;5580;50.106;8.702;2022-10-31T13:46:39;22.37;;;10.80;;
11054;SDS011;5580;50.106;8.702;2022-10-31T13:54:46;19.40;;;10.63;;
11054;SDS011;5580;50.106;8.702;2022-10-31T13:59:57;26.23;;;11.47;;
11054;SDS011;5580;50.106;8.702;2022-10-31T14:02:30;23.13;;;11.27;;
11054;SDS011;5580;50.106;8.702;2022-10-31T14:04:59;33.20;;;11.33;;
11054;SDS011;5580;50.106;8.702;2022-10-31T14:07:28;21.97;;;11.03;;
11054;SDS011;5580;50.106;8.702;2022-10-31T14:13:03;28.70;;;12.47;;
11054;SDS011;5580;50.106;8.702;2022-10-31T14:15:39;29.20;;;12.67;;
11054;SDS011;5580;50.106;8.702;2022-10-31T14:18:18;30.47;;;11.90;;
11054;SDS011;5580;50.106;8.702;2022-10-31T14:20:48;29.60;;;12.27;;
11054;SDS011;5580;50.106;8.702;2022-10-31T14:28:50;37.57;;;13.20;;
11054;SDS011;5580;50.106;8.702;2022-10-31T14:33:52;22.77;;;12.47;;
11054;SDS011;5580;50.106;8.702;2022-10-31T14:36:24;32.03;;;13.70;;
11054;SDS011;5580;50.106;8.702;2022-10-31T14:42:11;29.77;;;13.43;;
11054;SDS011;5580;50.106;8.702;2022-10-31T14:49:49;40.23;;;13.80;;
11054;SDS011;5580;50.106;8.702;2022-10-31T14:52:35;35.13;;;13.27;;
11054;SDS011;5580;50.106;8.702;2022-10-31T14:55:03;30.93;;;12.07;;
11054;SDS011;5580;50.106;8.702;2022-10-31T14:57:35;18.67;;;11.20;;
11054;SDS011;5580;50.106;8.702;2022-10-31T15:00:04;19.07;;;11.20;;
11054;SDS011;5580;50.106;8.702;2022-10-31T15:02:50;19.27;;;10.97;;
11054;SDS011;5580;50.106;8.702;2022-10-31T15:05:21;20.33;;;11.20;;
11054;SDS011;5580;50.106;8.702;2022-10-31T15:07:51;22.30;;;10.57;;
11054;SDS011;5580;50.106;8.702;2022-10-31T15:10:20;23.50;;;10.93;;
11054;SDS011;5580;50.106;8.702;2022-10-31T15:12:47;24.87;;;12.10;;
11054;SDS011;5580;50.106;8.702;2022-10-31T15:15:14;27.87;;;14.27;;
11054;SDS011;5580;50.106;8.702;2022-10-31T15:18:00;26.90;;;14.50;;
11054;SDS011;5580;50.106;8.702;2022-10-31T15:20:30;27.13;;;14.17;;
11054;SDS011;5580;50.106;8.702;2022-10-31T15:23:00;27.47;;;14.10;;
11054;SDS011;5580;50.106;8.702;2022-10-31T15:25:28;28.50;;;14.17;;
11054;SDS011;5580;50.106;8.702;2022-10-31T15:27:58;30.83;;;16.30;;
11054;SDS011;5580;50.106;8.702;2022-10-31T15:30:27;28.33;;;16.23;;
11054;SDS011;5580;50.106;8.702;2022-10-31T15:32:54;26.77;;;16.30;;
11054;SDS011;5580;50.106;8.702;2022-10-31T15:37:56;28.93;;;15.73;;
11054;SDS011;5580;50.106;8.702;2022-10-31T15:40:23;26.43;;;14.40;;
11054;SDS011;5580;50.106;8.702;2022-10-31T15:42:57;30.23;;;13.70;;
11054;SDS011;5580;50.106;8.702;2022-10-31T15:45:26;28.73;;;13.77;;
11054;SDS011;5580;50.106;8.702;2022-10-31T15:48:01;27.40;;;13.80;;
11054;SDS011;5580;50.106;8.702;2022-10-31T15:50:39;27.23;;;13.53;;
11054;SDS011;5580;50.106;8.702;2022-10-31T15:53:06;24.50;;;13.77;;
11054;SDS011;5580;50.106;8.702;2022-10-31T15:55:57;23.70;;;13.90;;
11054;SDS011;5580;50.106;8.702;2022-10-31T15:58:27;27.23;;;13.90;;
11054;SDS011;5580;50.106;8.702;2022-10-31T16:01:03;29.37;;;15.77;;
11054;SDS011;5580;50.106;8.702;2022-10-31T16:03:54;28.27;;;14.90;;
11054;SDS011;5580;50.106;8.702;2022-10-31T16:06:24;25.33;;;14.97;;
11054;SDS011;5580;50.106;8.702;2022-10-31T16:08:50;27.77;;;16.70;;
11054;SDS011;5580;50.106;8.702;2022-10-31T16:11:23;26.33;;;15.50;;
11054;SDS011;5580;50.106;8.702;2022-10-31T16:14:13;27.93;;;15.73;;
11054;SDS011;5580;50.106;8.702;2022-10-31T16:16:42;27.70;;;14.97;;
11054;SDS011;5580;50.106;8.702;2022-10-31T16:21:45;27.33;;;15.87;;
11054;SDS011;5580;50.106;8.702;2022-10-31T16:24:21;28.47;;;15.77;;
11054;SDS011;5580;50.106;8.702;2022-10-31T16:26:53;29.97;;;15.40;;
11054;SDS011;5580;50.106;8.702;2022-10-31T16:29:39;32.13;;;15.53;;
11054;SDS011;5580;50.106;8.702;2022-10-31T16:32:24;35.57;;;15.80;;
11054;SDS011;5580;50.106;8.702;2022-10-31T16:34:57;33.30;;;15.63;;
11054;SDS011;5580;50.106;8.702;2022-10-31T16:37:32;27.03;;;15.07;;
11054;SDS011;5580;50.106;8.702;2022-10-31T16:39:58;31.60;;;14.97;;
11054;SDS011;5580;50.106;8.702;2022-10-31T16:42:24;29.57;;;15.13;;
11054;SDS011;5580;50.106;8.702;2022-10-31T16:44:51;32.07;;;14.93;;
11054;SDS011;5580;50.106;8.702;2022-10-31T16:47:17;27.53;;;14.50;;
11054;SDS011;5580;50.106;8.702;2022-10-31T16:49:43;25.20;;;15.37;;
11054;SDS011;5580;50.106;8.702;2022-10-31T16:52:11;23.10;;;14.57;;
11054;SDS011;5580;50.106;8.702;2022-10-31T16:54:37;26.17;;;15.20;;
11054;SDS011;5580;50.106;8.702;2022-10-31T16:57:04;23.93;;;14.47;;
11054;SDS011;5580;50.106;8.702;2022-10-31T16:59:31;26.37;;;15.53;;
11054;SDS011;5580;50.106;8.702;2022-10-31T17:01:58;26.37;;;15.13;;
11054;SDS011;5580;50.106;8.702;2022-10-31T17:04:25;24.00;;;14.20;;
11054;SDS011;5580;50.106;8.702;2022-10-31T17:06:51;25.23;;;14.93;;
11054;SDS011;5580;50.106;8.702;2022-10-31T17:09:16;25.07;;;14.83;;